sensor_id;sensor_type;location;lat;lon;timestamp;P1;durP1;ratioP1;P2;durP2;ratioP2
13743;SDS011;6943;52.368;9.966;2022-09-13T00:01:15;4.47;;;3.00;;
13743;SDS011;6943;52.368;9.966;2022-09-13T00:03:41;3.60;;;3.20;;
13743;SDS011;6943;52.368;9.966;2022-09-13T00:06:11;4.10;;;3.00;;
13743;SDS011;6943;52.368;9.966;2022-09-13T00:08:39;3.40;;;3.00;;
13743;SDS011;6943;52.368;9.966;2022-09-13T00:11:05;3.57;;;3.10;;
13743;SDS011;6943;52.368;9.966;2022-09-13T00:13:31;5.63;;;2.73;;
13743;SDS011;6943;52.368;9.966;2022-09-13T00:15:56;3.53;;;2.73;;
13743;SDS011;6943;52.368;9.966;2022-09-13T00:18:25;4.17;;;3.60;;
13743;SDS011;6943;52.368;9.966;2022-09-13T00:20:50;3.70;;;3.20;;
13743;SDS011;6943;52.368;9.966;2022-09-13T00:23:15;3.93;;;3.10;;
13743;SDS011;6943;52.368;9.966;2022-09-13T00:25:41;3.40;;;3.10;;
13743;SDS011;6943;52.368;9.966;2022-09-13T00:28:07;6.87;;;3.17;;
13743;SDS011;6943;52.368;9.966;2022-09-13T00:30:32;3.73;;;3.27;;
13743;SDS011;6943;52.368;9.966;2022-09-13T00:32:58;5.03;;;3.60;;
13743;SDS011;6943;52.368;9.966;2022-09-13T00:35:28;3.70;;;3.30;;
13743;SDS011;6943;52.368;9.966;2022-09-13T00:37:53;6.20;;;4.00;;
13743;SDS011;6943;52.368;9.966;2022-09-13T00:40:19;4.80;;;3.70;;
13743;SDS011;6943;52.368;9.966;2022-09-13T00:42:45;4.37;;;3.63;;
13743;SDS011;6943;52.368;9.966;2022-09-13T00:50:21;6.57;;;3.83;;
13743;SDS011;6943;52.368;9.966;2022-09-13T00:53:06;4.03;;;3.63;;
13743;SDS011;6943;52.368;9.966;2022-09-13T00:55:34;5.97;;;4.03;;
13743;SDS011;6943;52.368;9.966;2022-09-13T00:58:09;5.30;;;3.40;;
13743;SDS011;6943;52.368;9.966;2022-09-13T01:00:58;4.40;;;3.63;;
13743;SDS011;6943;52.368;9.966;2022-09-13T01:03:26;5.10;;;3.80;;
13743;SDS011;6943;52.368;9.966;2022-09-13T01:05:56;3.93;;;3.63;;
13743;SDS011;6943;52.368;9.966;2022-09-13T01:08:34;3.93;;;3.53;;
13743;SDS011;6943;52.368;9.966;2022-09-13T01:11:02;4.80;;;4.07;;
13743;SDS011;6943;52.368;9.966;2022-09-13T01:13:36;3.73;;;3.33;;
13743;SDS011;6943;52.368;9.966;2022-09-13T01:16:03;3.57;;;3.27;;
13743;SDS011;6943;52.368;9.966;2022-09-13T01:18:29;5.77;;;3.70;;
13743;SDS011;6943;52.368;9.966;2022-09-13T01:21:05;4.87;;;3.80;;
13743;SDS011;6943;52.368;9.966;2022-09-13T01:26:47;3.90;;;3.40;;
13743;SDS011;6943;52.368;9.966;2022-09-13T01:29:56;6.20;;;4.40;;
13743;SDS011;6943;52.368;9.966;2022-09-13T01:32:51;5.53;;;4.30;;
13743;SDS011;6943;52.368;9.966;2022-09-13T01:35:45;5.30;;;3.50;;
13743;SDS011;6943;52.368;9.966;2022-09-13T01:38:26;4.30;;;3.90;;
13743;SDS011;6943;52.368;9.966;2022-09-13T01:41:07;4.37;;;3.43;;
13743;SDS011;6943;52.368;9.966;2022-09-13T01:47:02;4.90;;;4.40;;
13743;SDS011;6943;52.368;9.966;2022-09-13T01:58:01;4.43;;;3.73;;
13743;SDS011;6943;52.368;9.966;2022-09-13T02:00:40;5.40;;;4.00;;
13743;SDS011;6943;52.368;9.966;2022-09-13T02:03:13;4.37;;;3.60;;
13743;SDS011;6943;52.368;9.966;2022-09-13T02:05:46;4.07;;;3.67;;
13743;SDS011;6943;52.368;9.966;2022-09-13T02:08:24;5.13;;;4.00;;
13743;SDS011;6943;52.368;9.966;2022-09-13T02:11:26;4.40;;;4.00;;
13743;SDS011;6943;52.368;9.966;2022-09-13T02:14:09;4.77;;;4.33;;
13743;SDS011;6943;52.368;9.966;2022-09-13T02:16:45;4.57;;;3.90;;
13743;SDS011;6943;52.368;9.966;2022-09-13T02:19:28;4.90;;;4.10;;
13743;SDS011;6943;52.368;9.966;2022-09-13T02:22:02;4.43;;;4.00;;
13743;SDS011;6943;52.368;9.966;2022-09-13T02:24:40;6.37;;;4.53;;
13743;SDS011;6943;52.368;9.966;2022-09-13T02:27:10;4.57;;;4.13;;
13743;SDS011;6943;52.368;9.966;2022-09-13T02:29:39;4.93;;;4.43;;
13743;SDS011;6943;52.368;9.966;2022-09-13T02:32:13;5.53;;;4.50;;
13743;SDS011;6943;52.368;9.966;2022-09-13T02:34:46;4.90;;;4.40;;
13743;SDS011;6943;52.368;9.966;2022-09-13T02:37:18;5.43;;;4.33;;
13743;SDS011;6943;52.368;9.966;2022-09-13T02:39:45;5.03;;;4.47;;
13743;SDS011;6943;52.368;9.966;2022-09-13T02:42:18;5.67;;;4.50;;
13743;SDS011;6943;52.368;9.966;2022-09-13T02:44:55;5.50;;;5.00;;
13743;SDS011;6943;52.368;9.966;2022-09-13T02:47:38;5.53;;;4.60;;
13743;SDS011;6943;52.368;9.966;2022-09-13T02:53:28;6.70;;;5.17;;
13743;SDS011;6943;52.368;9.966;2022-09-13T02:56:15;6.13;;;4.87;;
13743;SDS011;6943;52.368;9.966;2022-09-13T02:58:52;7.83;;;5.47;;
13743;SDS011;6943;52.368;9.966;2022-09-13T03:01:23;6.23;;;5.17;;
13743;SDS011;6943;52.368;9.966;2022-09-13T03:03:50;7.50;;;4.90;;
13743;SDS011;6943;52.368;9.966;2022-09-13T03:06:25;6.60;;;5.90;;
13743;SDS011;6943;52.368;9.966;2022-09-13T03:08:55;9.47;;;5.53;;
13743;SDS011;6943;52.368;9.966;2022-09-13T03:17:12;8.57;;;6.07;;
13743;SDS011;6943;52.368;9.966;2022-09-13T03:19:52;6.30;;;5.70;;
13743;SDS011;6943;52.368;9.966;2022-09-13T03:25:35;6.97;;;6.00;;
13743;SDS011;6943;52.368;9.966;2022-09-13T03:37:04;9.27;;;6.67;;
13743;SDS011;6943;52.368;9.966;2022-09-13T03:40:08;7.97;;;6.57;;
13743;SDS011;6943;52.368;9.966;2022-09-13T03:42:58;8.60;;;6.73;;
13743;SDS011;6943;52.368;9.966;2022-09-13T03:45:29;8.97;;;6.57;;
13743;SDS011;6943;52.368;9.966;2022-09-13T03:47:57;8.83;;;6.57;;
13743;SDS011;6943;52.368;9.966;2022-09-13T03:50:24;8.73;;;6.47;;
13743;SDS011;6943;52.368;9.966;2022-09-13T03:52:51;9.30;;;6.70;;
13743;SDS011;6943;52.368;9.966;2022-09-13T03:55:22;8.63;;;6.87;;
13743;SDS011;6943;52.368;9.966;2022-09-13T03:57:48;8.50;;;7.23;;
13743;SDS011;6943;52.368;9.966;2022-09-13T04:00:13;9.33;;;7.23;;
13743;SDS011;6943;52.368;9.966;2022-09-13T04:02:39;9.27;;;6.53;;
13743;SDS011;6943;52.368;9.966;2022-09-13T04:05:05;9.83;;;6.37;;
13743;SDS011;6943;52.368;9.966;2022-09-13T04:07:31;7.67;;;6.60;;
13743;SDS011;6943;52.368;9.966;2022-09-13T04:09:56;7.07;;;6.23;;
13743;SDS011;6943;52.368;9.966;2022-09-13T04:12:22;9.40;;;7.07;;
13743;SDS011;6943;52.368;9.966;2022-09-13T04:14:47;6.33;;;5.67;;
13743;SDS011;6943;52.368;9.966;2022-09-13T04:17:13;10.03;;;6.70;;
13743;SDS011;6943;52.368;9.966;2022-09-13T04:19:39;12.87;;;6.63;;
13743;SDS011;6943;52.368;9.966;2022-09-13T04:22:05;8.63;;;6.50;;
13743;SDS011;6943;52.368;9.966;2022-09-13T04:24:31;7.53;;;6.70;;
13743;SDS011;6943;52.368;9.966;2022-09-13T04:26:57;10.37;;;6.50;;
13743;SDS011;6943;52.368;9.966;2022-09-13T04:29:23;8.97;;;6.53;;
13743;SDS011;6943;52.368;9.966;2022-09-13T04:31:51;8.23;;;6.60;;
13743;SDS011;6943;52.368;9.966;2022-09-13T04:34:17;9.50;;;6.47;;
13743;SDS011;6943;52.368;9.966;2022-09-13T04:36:44;9.37;;;7.10;;
13743;SDS011;6943;52.368;9.966;2022-09-13T04:39:10;7.97;;;6.20;;
13743;SDS011;6943;52.368;9.966;2022-09-13T04:41:37;8.07;;;6.50;;
13743;SDS011;6943;52.368;9.966;2022-09-13T04:44:04;7.57;;;6.40;;
13743;SDS011;6943;52.368;9.966;2022-09-13T04:46:29;6.90;;;6.30;;
13743;SDS011;6943;52.368;9.966;2022-09-13T04:48:55;8.40;;;6.27;;
13743;SDS011;6943;52.368;9.966;2022-09-13T04:51:20;7.77;;;6.57;;
13743;SDS011;6943;52.368;9.966;2022-09-13T04:53:50;7.40;;;6.60;;
13743;SDS011;6943;52.368;9.966;2022-09-13T04:56:17;7.77;;;6.67;;
13743;SDS011;6943;52.368;9.966;2022-09-13T04:58:43;7.13;;;6.30;;
13743;SDS011;6943;52.368;9.966;2022-09-13T05:01:09;7.00;;;6.27;;
13743;SDS011;6943;52.368;9.966;2022-09-13T05:03:35;8.33;;;7.47;;
13743;SDS011;6943;52.368;9.966;2022-09-13T05:06:02;9.37;;;6.73;;
13743;SDS011;6943;52.368;9.966;2022-09-13T05:08:34;7.57;;;6.47;;
13743;SDS011;6943;52.368;9.966;2022-09-13T05:11:00;6.93;;;6.27;;
13743;SDS011;6943;52.368;9.966;2022-09-13T05:13:26;8.33;;;7.10;;
13743;SDS011;6943;52.368;9.966;2022-09-13T05:15:59;9.60;;;7.60;;
13743;SDS011;6943;52.368;9.966;2022-09-13T05:18:27;7.53;;;6.83;;
13743;SDS011;6943;52.368;9.966;2022-09-13T05:20:54;7.67;;;6.87;;
13743;SDS011;6943;52.368;9.966;2022-09-13T05:23:20;8.23;;;6.77;;
13743;SDS011;6943;52.368;9.966;2022-09-13T05:28:22;7.63;;;6.90;;
13743;SDS011;6943;52.368;9.966;2022-09-13T05:30:58;7.17;;;6.47;;
13743;SDS011;6943;52.368;9.966;2022-09-13T05:33:26;7.73;;;6.93;;
13743;SDS011;6943;52.368;9.966;2022-09-13T05:35:53;7.13;;;6.43;;
13743;SDS011;6943;52.368;9.966;2022-09-13T05:38:19;7.53;;;6.83;;
13743;SDS011;6943;52.368;9.966;2022-09-13T05:40:45;7.73;;;6.93;;
13743;SDS011;6943;52.368;9.966;2022-09-13T05:43:11;9.60;;;6.83;;
13743;SDS011;6943;52.368;9.966;2022-09-13T05:45:37;7.20;;;6.50;;
13743;SDS011;6943;52.368;9.966;2022-09-13T05:48:02;7.60;;;6.90;;
13743;SDS011;6943;52.368;9.966;2022-09-13T05:50:28;8.13;;;6.43;;
13743;SDS011;6943;52.368;9.966;2022-09-13T05:52:53;7.40;;;6.70;;
13743;SDS011;6943;52.368;9.966;2022-09-13T05:55:19;7.70;;;6.07;;
13743;SDS011;6943;52.368;9.966;2022-09-13T05:57:45;8.00;;;7.20;;
13743;SDS011;6943;52.368;9.966;2022-09-13T06:00:12;7.97;;;6.27;;
13743;SDS011;6943;52.368;9.966;2022-09-13T06:02:38;7.33;;;6.43;;
13743;SDS011;6943;52.368;9.966;2022-09-13T06:05:04;7.67;;;6.97;;
13743;SDS011;6943;52.368;9.966;2022-09-13T06:07:30;7.13;;;6.43;;
13743;SDS011;6943;52.368;9.966;2022-09-13T06:09:55;9.10;;;6.47;;
13743;SDS011;6943;52.368;9.966;2022-09-13T06:12:22;7.40;;;6.57;;
13743;SDS011;6943;52.368;9.966;2022-09-13T06:14:47;8.07;;;7.17;;
13743;SDS011;6943;52.368;9.966;2022-09-13T06:17:13;8.93;;;7.13;;
13743;SDS011;6943;52.368;9.966;2022-09-13T06:19:39;8.03;;;6.13;;
13743;SDS011;6943;52.368;9.966;2022-09-13T06:22:04;7.07;;;6.47;;
13743;SDS011;6943;52.368;9.966;2022-09-13T06:24:30;11.63;;;6.53;;
13743;SDS011;6943;52.368;9.966;2022-09-13T06:26:55;8.23;;;6.83;;
13743;SDS011;6943;52.368;9.966;2022-09-13T06:29:20;7.40;;;6.43;;
13743;SDS011;6943;52.368;9.966;2022-09-13T06:31:46;6.93;;;6.20;;
13743;SDS011;6943;52.368;9.966;2022-09-13T06:34:11;7.63;;;6.30;;
13743;SDS011;6943;52.368;9.966;2022-09-13T06:36:39;7.00;;;6.17;;
13743;SDS011;6943;52.368;9.966;2022-09-13T06:39:04;6.60;;;6.00;;
13743;SDS011;6943;52.368;9.966;2022-09-13T06:41:30;7.27;;;6.57;;
13743;SDS011;6943;52.368;9.966;2022-09-13T06:43:57;6.90;;;6.20;;
13743;SDS011;6943;52.368;9.966;2022-09-13T06:46:24;8.47;;;6.10;;
13743;SDS011;6943;52.368;9.966;2022-09-13T06:48:54;6.83;;;6.13;;
13743;SDS011;6943;52.368;9.966;2022-09-13T06:51:24;6.87;;;5.50;;
13743;SDS011;6943;52.368;9.966;2022-09-13T06:53:50;7.37;;;5.73;;
13743;SDS011;6943;52.368;9.966;2022-09-13T06:56:17;7.50;;;6.60;;
13743;SDS011;6943;52.368;9.966;2022-09-13T06:58:45;6.83;;;6.13;;
13743;SDS011;6943;52.368;9.966;2022-09-13T07:01:17;6.10;;;5.50;;
13743;SDS011;6943;52.368;9.966;2022-09-13T07:03:52;6.30;;;5.70;;
13743;SDS011;6943;52.368;9.966;2022-09-13T07:06:23;6.70;;;5.70;;
13743;SDS011;6943;52.368;9.966;2022-09-13T07:08:51;5.87;;;5.27;;
13743;SDS011;6943;52.368;9.966;2022-09-13T07:11:19;5.97;;;5.37;;
13743;SDS011;6943;52.368;9.966;2022-09-13T07:13:50;6.53;;;5.90;;
13743;SDS011;6943;52.368;9.966;2022-09-13T07:16:17;6.10;;;5.50;;
13743;SDS011;6943;52.368;9.966;2022-09-13T07:18:44;6.30;;;5.70;;
13743;SDS011;6943;52.368;9.966;2022-09-13T07:21:15;7.00;;;6.30;;
13743;SDS011;6943;52.368;9.966;2022-09-13T07:23:42;7.93;;;6.27;;
13743;SDS011;6943;52.368;9.966;2022-09-13T07:26:08;7.33;;;6.10;;
13743;SDS011;6943;52.368;9.966;2022-09-13T07:28:37;7.00;;;6.00;;
13743;SDS011;6943;52.368;9.966;2022-09-13T07:31:12;7.47;;;6.10;;
13743;SDS011;6943;52.368;9.966;2022-09-13T07:33:46;6.20;;;5.63;;
13743;SDS011;6943;52.368;9.966;2022-09-13T07:36:16;7.87;;;5.37;;
13743;SDS011;6943;52.368;9.966;2022-09-13T07:38:42;7.67;;;5.83;;
13743;SDS011;6943;52.368;9.966;2022-09-13T07:41:12;6.53;;;5.83;;
13743;SDS011;6943;52.368;9.966;2022-09-13T07:43:39;6.90;;;6.03;;
13743;SDS011;6943;52.368;9.966;2022-09-13T07:46:06;6.67;;;5.00;;
13743;SDS011;6943;52.368;9.966;2022-09-13T07:48:34;5.97;;;5.47;;
13743;SDS011;6943;52.368;9.966;2022-09-13T07:51:04;6.20;;;5.60;;
13743;SDS011;6943;52.368;9.966;2022-09-13T07:53:32;6.07;;;5.57;;
13743;SDS011;6943;52.368;9.966;2022-09-13T07:55:59;6.33;;;5.60;;
13743;SDS011;6943;52.368;9.966;2022-09-13T07:58:29;6.00;;;5.40;;
13743;SDS011;6943;52.368;9.966;2022-09-13T08:00:57;6.10;;;5.53;;
13743;SDS011;6943;52.368;9.966;2022-09-13T08:03:28;5.70;;;5.20;;
13743;SDS011;6943;52.368;9.966;2022-09-13T08:05:54;5.90;;;5.40;;
13743;SDS011;6943;52.368;9.966;2022-09-13T08:08:19;6.03;;;5.10;;
13743;SDS011;6943;52.368;9.966;2022-09-13T08:10:45;6.47;;;5.87;;
13743;SDS011;6943;52.368;9.966;2022-09-13T08:13:10;5.33;;;4.83;;
13743;SDS011;6943;52.368;9.966;2022-09-13T08:15:36;6.47;;;5.87;;
13743;SDS011;6943;52.368;9.966;2022-09-13T08:18:01;6.43;;;5.80;;
13743;SDS011;6943;52.368;9.966;2022-09-13T08:20:27;5.77;;;5.23;;
13743;SDS011;6943;52.368;9.966;2022-09-13T08:22:52;6.90;;;5.53;;
13743;SDS011;6943;52.368;9.966;2022-09-13T08:25:18;7.17;;;5.30;;
13743;SDS011;6943;52.368;9.966;2022-09-13T08:27:44;5.93;;;5.33;;
13743;SDS011;6943;52.368;9.966;2022-09-13T08:30:09;6.50;;;4.97;;
13743;SDS011;6943;52.368;9.966;2022-09-13T08:32:35;6.73;;;5.57;;
13743;SDS011;6943;52.368;9.966;2022-09-13T08:35:01;9.40;;;6.50;;
13743;SDS011;6943;52.368;9.966;2022-09-13T08:37:27;7.10;;;6.40;;
13743;SDS011;6943;52.368;9.966;2022-09-13T08:39:52;7.90;;;6.10;;
13743;SDS011;6943;52.368;9.966;2022-09-13T08:42:19;6.43;;;5.80;;
13743;SDS011;6943;52.368;9.966;2022-09-13T08:45:12;7.77;;;6.20;;
13743;SDS011;6943;52.368;9.966;2022-09-13T08:47:57;7.50;;;6.30;;
13743;SDS011;6943;52.368;9.966;2022-09-13T08:50:34;8.57;;;6.30;;
13743;SDS011;6943;52.368;9.966;2022-09-13T09:04:11;10.73;;;7.80;;
13743;SDS011;6943;52.368;9.966;2022-09-13T09:06:54;11.53;;;7.90;;
13743;SDS011;6943;52.368;9.966;2022-09-13T09:09:28;12.47;;;8.87;;
13743;SDS011;6943;52.368;9.966;2022-09-13T09:12:02;11.50;;;8.40;;
13743;SDS011;6943;52.368;9.966;2022-09-13T09:14:38;9.97;;;7.70;;
13743;SDS011;6943;52.368;9.966;2022-09-13T09:17:13;12.73;;;8.10;;
13743;SDS011;6943;52.368;9.966;2022-09-13T09:19:47;10.57;;;8.10;;
13743;SDS011;6943;52.368;9.966;2022-09-13T09:22:19;10.03;;;8.50;;
13743;SDS011;6943;52.368;9.966;2022-09-13T09:24:47;10.63;;;8.30;;
13743;SDS011;6943;52.368;9.966;2022-09-13T09:27:17;9.30;;;8.33;;
13743;SDS011;6943;52.368;9.966;2022-09-13T09:29:46;11.47;;;8.30;;
13743;SDS011;6943;52.368;9.966;2022-09-13T09:32:21;9.43;;;8.00;;
13743;SDS011;6943;52.368;9.966;2022-09-13T09:35:10;11.07;;;8.30;;
13743;SDS011;6943;52.368;9.966;2022-09-13T09:40:55;9.83;;;8.80;;
13743;SDS011;6943;52.368;9.966;2022-09-13T09:43:31;12.30;;;9.07;;
13743;SDS011;6943;52.368;9.966;2022-09-13T09:46:01;11.47;;;9.43;;
13743;SDS011;6943;52.368;9.966;2022-09-13T09:48:30;13.97;;;9.60;;
13743;SDS011;6943;52.368;9.966;2022-09-13T09:51:08;8.57;;;7.77;;
13743;SDS011;6943;52.368;9.966;2022-09-13T09:53:39;11.60;;;9.03;;
13743;SDS011;6943;52.368;9.966;2022-09-13T09:58:45;9.87;;;8.90;;
13743;SDS011;6943;52.368;9.966;2022-09-13T10:01:18;11.03;;;9.50;;
13743;SDS011;6943;52.368;9.966;2022-09-13T10:03:48;10.83;;;9.63;;
13743;SDS011;6943;52.368;9.966;2022-09-13T10:06:19;10.80;;;9.70;;
13743;SDS011;6943;52.368;9.966;2022-09-13T10:09:21;11.73;;;10.23;;
13743;SDS011;6943;52.368;9.966;2022-09-13T10:11:56;11.80;;;9.67;;
13743;SDS011;6943;52.368;9.966;2022-09-13T10:14:40;11.20;;;9.70;;
13743;SDS011;6943;52.368;9.966;2022-09-13T10:17:17;11.17;;;9.77;;
13743;SDS011;6943;52.368;9.966;2022-09-13T10:19:57;11.43;;;9.07;;
13743;SDS011;6943;52.368;9.966;2022-09-13T10:22:25;12.10;;;9.77;;
13743;SDS011;6943;52.368;9.966;2022-09-13T10:24:52;12.40;;;9.43;;
13743;SDS011;6943;52.368;9.966;2022-09-13T10:27:30;12.20;;;9.37;;
13743;SDS011;6943;52.368;9.966;2022-09-13T10:29:59;10.13;;;9.13;;
13743;SDS011;6943;52.368;9.966;2022-09-13T10:32:27;10.77;;;8.63;;
13743;SDS011;6943;52.368;9.966;2022-09-13T10:34:54;9.60;;;8.63;;
13743;SDS011;6943;52.368;9.966;2022-09-13T10:37:25;12.00;;;9.03;;
13743;SDS011;6943;52.368;9.966;2022-09-13T10:40:06;10.77;;;8.80;;
13743;SDS011;6943;52.368;9.966;2022-09-13T10:42:37;8.50;;;7.70;;
13743;SDS011;6943;52.368;9.966;2022-09-13T10:45:04;10.67;;;9.30;;
13743;SDS011;6943;52.368;9.966;2022-09-13T10:47:38;11.87;;;9.20;;
13743;SDS011;6943;52.368;9.966;2022-09-13T10:50:23;9.47;;;8.43;;
13743;SDS011;6943;52.368;9.966;2022-09-13T10:52:52;9.17;;;8.00;;
13743;SDS011;6943;52.368;9.966;2022-09-13T10:55:30;9.00;;;7.43;;
13743;SDS011;6943;52.368;9.966;2022-09-13T11:00:40;7.77;;;6.67;;
13743;SDS011;6943;52.368;9.966;2022-09-13T11:11:01;9.67;;;8.33;;
13743;SDS011;6943;52.368;9.966;2022-09-13T11:16:45;11.60;;;10.27;;
13743;SDS011;6943;52.368;9.966;2022-09-13T11:19:28;12.97;;;9.97;;
13743;SDS011;6943;52.368;9.966;2022-09-13T11:27:55;15.10;;;12.27;;
13743;SDS011;6943;52.368;9.966;2022-09-13T11:30:50;13.87;;;12.20;;
13743;SDS011;6943;52.368;9.966;2022-09-13T11:33:38;14.47;;;12.33;;
13743;SDS011;6943;52.368;9.966;2022-09-13T11:42:04;13.53;;;11.33;;
13743;SDS011;6943;52.368;9.966;2022-09-13T11:44:55;12.70;;;11.40;;
13743;SDS011;6943;52.368;9.966;2022-09-13T11:50:32;15.03;;;11.93;;
13743;SDS011;6943;52.368;9.966;2022-09-13T11:55:52;12.90;;;10.27;;
13743;SDS011;6943;52.368;9.966;2022-09-13T11:58:28;12.93;;;10.77;;
13743;SDS011;6943;52.368;9.966;2022-09-13T12:01:00;11.90;;;10.47;;
13743;SDS011;6943;52.368;9.966;2022-09-13T12:03:32;11.33;;;10.13;;
13743;SDS011;6943;52.368;9.966;2022-09-13T12:06:30;12.90;;;9.83;;
13743;SDS011;6943;52.368;9.966;2022-09-13T12:11:44;11.20;;;10.10;;
13743;SDS011;6943;52.368;9.966;2022-09-13T12:14:36;10.67;;;9.27;;
13743;SDS011;6943;52.368;9.966;2022-09-13T12:17:14;11.07;;;9.97;;
13743;SDS011;6943;52.368;9.966;2022-09-13T12:20:03;12.03;;;10.03;;
13743;SDS011;6943;52.368;9.966;2022-09-13T12:22:37;13.50;;;12.10;;
13743;SDS011;6943;52.368;9.966;2022-09-13T12:25:06;16.43;;;12.47;;
13743;SDS011;6943;52.368;9.966;2022-09-13T12:28:15;15.13;;;13.43;;
13743;SDS011;6943;52.368;9.966;2022-09-13T12:30:47;15.73;;;13.97;;
13743;SDS011;6943;52.368;9.966;2022-09-13T12:33:18;14.20;;;12.23;;
13743;SDS011;6943;52.368;9.966;2022-09-13T12:38:32;14.83;;;13.27;;
13743;SDS011;6943;52.368;9.966;2022-09-13T12:41:34;15.87;;;14.30;;
13743;SDS011;6943;52.368;9.966;2022-09-13T12:44:18;18.53;;;14.90;;
13743;SDS011;6943;52.368;9.966;2022-09-13T12:47:15;17.57;;;15.67;;
13743;SDS011;6943;52.368;9.966;2022-09-13T12:50:19;16.77;;;14.90;;
13743;SDS011;6943;52.368;9.966;2022-09-13T12:53:33;16.43;;;14.70;;
13743;SDS011;6943;52.368;9.966;2022-09-13T12:56:33;17.00;;;15.27;;
13743;SDS011;6943;52.368;9.966;2022-09-13T13:02:27;18.40;;;16.63;;
13743;SDS011;6943;52.368;9.966;2022-09-13T13:08:03;20.07;;;17.90;;
13743;SDS011;6943;52.368;9.966;2022-09-13T13:10:32;16.87;;;15.17;;
13743;SDS011;6943;52.368;9.966;2022-09-13T13:13:10;15.83;;;13.90;;
13743;SDS011;6943;52.368;9.966;2022-09-13T13:23:26;9.27;;;8.47;;
13743;SDS011;6943;52.368;9.966;2022-09-13T13:28:50;8.77;;;7.97;;
13743;SDS011;6943;52.368;9.966;2022-09-13T13:31:34;8.67;;;7.87;;
13743;SDS011;6943;52.368;9.966;2022-09-13T13:34:24;10.03;;;9.03;;
13743;SDS011;6943;52.368;9.966;2022-09-13T13:37:01;8.93;;;8.13;;
13743;SDS011;6943;52.368;9.966;2022-09-13T13:46:54;5.97;;;5.37;;
13743;SDS011;6943;52.368;9.966;2022-09-13T13:49:41;4.90;;;4.50;;
13743;SDS011;6943;52.368;9.966;2022-09-13T14:02:29;5.60;;;4.37;;
13743;SDS011;6943;52.368;9.966;2022-09-13T14:05:07;4.83;;;4.43;;
13743;SDS011;6943;52.368;9.966;2022-09-13T14:10:57;3.70;;;3.40;;
13743;SDS011;6943;52.368;9.966;2022-09-13T14:21:32;2.40;;;2.20;;
13743;SDS011;6943;52.368;9.966;2022-09-13T14:24:17;2.20;;;1.97;;
13743;SDS011;6943;52.368;9.966;2022-09-13T14:26:45;3.90;;;1.90;;
13743;SDS011;6943;52.368;9.966;2022-09-13T14:29:14;2.13;;;1.57;;
13743;SDS011;6943;52.368;9.966;2022-09-13T14:31:48;2.83;;;1.47;;
13743;SDS011;6943;52.368;9.966;2022-09-13T14:34:22;1.80;;;1.27;;
13743;SDS011;6943;52.368;9.966;2022-09-13T14:36:59;2.80;;;1.03;;
13743;SDS011;6943;52.368;9.966;2022-09-13T14:39:27;1.80;;;1.17;;
13743;SDS011;6943;52.368;9.966;2022-09-13T14:42:12;2.80;;;1.30;;
13743;SDS011;6943;52.368;9.966;2022-09-13T14:44:43;3.37;;;1.47;;
13743;SDS011;6943;52.368;9.966;2022-09-13T14:50:04;2.77;;;1.00;;
13743;SDS011;6943;52.368;9.966;2022-09-13T14:52:46;2.23;;;1.10;;
13743;SDS011;6943;52.368;9.966;2022-09-13T14:55:16;2.63;;;1.07;;
13743;SDS011;6943;52.368;9.966;2022-09-13T14:57:48;3.40;;;1.00;;
13743;SDS011;6943;52.368;9.966;2022-09-13T15:00:20;2.93;;;1.20;;
13743;SDS011;6943;52.368;9.966;2022-09-13T15:02:50;2.53;;;1.00;;
13743;SDS011;6943;52.368;9.966;2022-09-13T15:05:19;1.77;;;1.10;;
13743;SDS011;6943;52.368;9.966;2022-09-13T15:07:47;3.83;;;1.40;;
13743;SDS011;6943;52.368;9.966;2022-09-13T15:10:21;4.63;;;1.27;;
13743;SDS011;6943;52.368;9.966;2022-09-13T15:13:10;2.90;;;1.37;;
13743;SDS011;6943;52.368;9.966;2022-09-13T15:15:42;3.30;;;1.20;;
13743;SDS011;6943;52.368;9.966;2022-09-13T15:20:54;2.67;;;1.30;;
13743;SDS011;6943;52.368;9.966;2022-09-13T15:23:26;2.33;;;0.93;;
13743;SDS011;6943;52.368;9.966;2022-09-13T15:25:54;4.17;;;1.10;;
13743;SDS011;6943;52.368;9.966;2022-09-13T15:31:08;7.57;;;1.20;;
13743;SDS011;6943;52.368;9.966;2022-09-13T15:33:44;3.10;;;0.93;;
13743;SDS011;6943;52.368;9.966;2022-09-13T15:36:14;3.63;;;1.00;;
13743;SDS011;6943;52.368;9.966;2022-09-13T15:38:57;2.60;;;1.37;;
13743;SDS011;6943;52.368;9.966;2022-09-13T15:41:50;2.23;;;1.03;;
13743;SDS011;6943;52.368;9.966;2022-09-13T15:44:16;4.80;;;1.40;;
13743;SDS011;6943;52.368;9.966;2022-09-13T15:46:45;2.33;;;1.13;;
13743;SDS011;6943;52.368;9.966;2022-09-13T15:49:16;5.30;;;1.43;;
13743;SDS011;6943;52.368;9.966;2022-09-13T15:51:44;4.33;;;1.50;;
13743;SDS011;6943;52.368;9.966;2022-09-13T15:54:11;2.30;;;1.10;;
13743;SDS011;6943;52.368;9.966;2022-09-13T15:56:39;2.67;;;1.20;;
13743;SDS011;6943;52.368;9.966;2022-09-13T15:59:07;4.60;;;1.67;;
13743;SDS011;6943;52.368;9.966;2022-09-13T16:01:40;4.50;;;1.33;;
13743;SDS011;6943;52.368;9.966;2022-09-13T16:04:07;3.13;;;1.03;;
13743;SDS011;6943;52.368;9.966;2022-09-13T16:06:38;5.80;;;1.67;;
13743;SDS011;6943;52.368;9.966;2022-09-13T16:09:09;2.73;;;1.10;;
13743;SDS011;6943;52.368;9.966;2022-09-13T16:11:46;3.10;;;1.17;;
13743;SDS011;6943;52.368;9.966;2022-09-13T16:14:12;2.57;;;1.10;;
13743;SDS011;6943;52.368;9.966;2022-09-13T16:16:39;3.63;;;1.63;;
13743;SDS011;6943;52.368;9.966;2022-09-13T16:19:04;3.87;;;1.37;;
13743;SDS011;6943;52.368;9.966;2022-09-13T16:21:30;3.97;;;1.10;;
13743;SDS011;6943;52.368;9.966;2022-09-13T16:23:55;4.50;;;1.10;;
13743;SDS011;6943;52.368;9.966;2022-09-13T16:26:21;3.57;;;1.17;;
13743;SDS011;6943;52.368;9.966;2022-09-13T16:28:46;2.70;;;0.93;;
13743;SDS011;6943;52.368;9.966;2022-09-13T16:31:12;4.20;;;1.00;;
13743;SDS011;6943;52.368;9.966;2022-09-13T16:33:41;2.80;;;1.30;;
13743;SDS011;6943;52.368;9.966;2022-09-13T16:36:08;2.57;;;1.13;;
13743;SDS011;6943;52.368;9.966;2022-09-13T16:38:37;3.27;;;1.33;;
13743;SDS011;6943;52.368;9.966;2022-09-13T16:41:03;2.97;;;0.93;;
13743;SDS011;6943;52.368;9.966;2022-09-13T16:43:29;4.27;;;1.40;;
13743;SDS011;6943;52.368;9.966;2022-09-13T16:45:57;3.70;;;1.27;;
13743;SDS011;6943;52.368;9.966;2022-09-13T16:48:23;3.57;;;1.13;;
13743;SDS011;6943;52.368;9.966;2022-09-13T16:50:48;3.23;;;1.10;;
13743;SDS011;6943;52.368;9.966;2022-09-13T16:53:14;1.93;;;0.93;;
13743;SDS011;6943;52.368;9.966;2022-09-13T16:55:39;2.43;;;0.90;;
13743;SDS011;6943;52.368;9.966;2022-09-13T16:58:05;5.07;;;1.00;;
13743;SDS011;6943;52.368;9.966;2022-09-13T17:00:31;5.30;;;1.27;;
13743;SDS011;6943;52.368;9.966;2022-09-13T17:02:56;5.30;;;2.50;;
13743;SDS011;6943;52.368;9.966;2022-09-13T17:05:22;4.43;;;1.17;;
13743;SDS011;6943;52.368;9.966;2022-09-13T17:07:49;5.43;;;2.20;;
13743;SDS011;6943;52.368;9.966;2022-09-13T17:10:15;5.33;;;2.10;;
13743;SDS011;6943;52.368;9.966;2022-09-13T17:12:41;3.20;;;1.00;;
13743;SDS011;6943;52.368;9.966;2022-09-13T17:15:07;3.93;;;1.30;;
13743;SDS011;6943;52.368;9.966;2022-09-13T17:17:33;3.03;;;1.40;;
13743;SDS011;6943;52.368;9.966;2022-09-13T17:20:04;3.67;;;1.10;;
13743;SDS011;6943;52.368;9.966;2022-09-13T17:22:36;3.27;;;1.00;;
13743;SDS011;6943;52.368;9.966;2022-09-13T17:25:05;5.10;;;1.50;;
13743;SDS011;6943;52.368;9.966;2022-09-13T17:27:37;2.83;;;1.13;;
13743;SDS011;6943;52.368;9.966;2022-09-13T17:30:03;4.70;;;1.20;;
13743;SDS011;6943;52.368;9.966;2022-09-13T17:32:33;3.00;;;1.13;;
13743;SDS011;6943;52.368;9.966;2022-09-13T17:34:59;3.03;;;1.20;;
13743;SDS011;6943;52.368;9.966;2022-09-13T17:37:24;2.27;;;1.20;;
13743;SDS011;6943;52.368;9.966;2022-09-13T17:39:50;3.30;;;1.00;;
13743;SDS011;6943;52.368;9.966;2022-09-13T17:42:16;3.53;;;1.00;;
13743;SDS011;6943;52.368;9.966;2022-09-13T17:44:41;4.00;;;1.30;;
13743;SDS011;6943;52.368;9.966;2022-09-13T17:47:07;3.17;;;1.50;;
13743;SDS011;6943;52.368;9.966;2022-09-13T17:49:32;2.43;;;1.57;;
13743;SDS011;6943;52.368;9.966;2022-09-13T17:51:58;4.73;;;2.13;;
13743;SDS011;6943;52.368;9.966;2022-09-13T17:54:24;4.13;;;1.90;;
13743;SDS011;6943;52.368;9.966;2022-09-13T17:56:50;3.10;;;1.67;;